Startpagina
METAR-TAF:

METAR-TAF

Vliegvelden :

Teheran, Iran

Teheran Mehrabad International Airport

breedte: 35-41N, lengte: 051-21E, hoogte: 1204 m

Actueel weer

Dit bericht is 37 minuten geleden gemaakt, om 13:00 UTC
Wind 6 kt uit het westzuidwesten
Temperatuur 22°C
Vochtigheid 12%
Druk 1014 hPa
Zicht 10 km of meer
geen wolken onder 1500 m en geen cumulonimbus

METAR: OIII 221300Z 24006KT CAVOK 22/M09 Q1013 A2994 NOSIG

Tijdstip: 17:07 (13:37 UTC)

Verwachting

Dit bericht is 2 uur en het 37 minuten geleden gemaakt, om 11:00 UTC
Verwachting geldig van 22 om 12 UTC tot 23 om 18 UTC
Wind 6 kt uit het noordwesten
Zicht: 8000 m
Tijdelijke
van 23 om 12 UTC tot 23 om 16 UTC
Wind 14 kt uit het westen

TAF: OIII 221100Z 2212/2318 32003MPS 8000 NSC TEMPO 2312/2316 26007MPS

Waarnemingen en weersverwachtingen van meer dan 4000 vliegvelden (METAR en TAF).

De beschikbare stations zijn de gele en rode punten op de kaart.

Ga met uw muis naar het station om de naam te zien.

Klik dan om waarnemingen en weersverwachtingen te zien.

kaart wijzigen: klik op de groene knoppen met een zwart kruis om in te zoomen, op de groene knop met een streepje om uit te zoomen of op de groene pijlen voor aangrenzende kaarten.


METAR-TAF: